Tiempo atmosférico en la estación meteorológica de Cabo Busto, Asturias (63 m.)



Fecha
DESCASC
Temp. máxima en grados centígrados (hora)
DESCASC
Temp. mínima en grados centígrados (hora)
DESCASC
Temp. media en grados centígrados
DESCASC
Racha de viento máxima en m/sg (hora)
DESCASC
Velocidad máxima media en intervalos de 10 minutos(hora)
DESCASC
Precipitaciones diarias en mm
DESCASC
Precipitaciones de 00:00 a 06:00 en mm
DESCASC
Precipitaciones de 06:00 a 12:00 en mm
DESCASC
Precipitaciones de 12:00 a 18:00 en mm
DESCASC
Precipitaciones de 18:00 a 24:00 en mm
DESCASC
05-04-2020 -- (--) -- (--) -- 13.89 (14:30) 8.33 (14:30) 0 0 0 0 0
04-04-2020 -- (--) -- (--) -- -- (--) -- (--) 0 0 0 0 0
03-04-2020 -- (--) -- (--) -- -- (--) -- (--) 0 0 0 0 0
02-04-2020 -- (--) -- (--) -- -- (--) -- (--) 0 0 0 0 0
01-04-2020 -- (--) -- (--) -- -- (--) -- (--) 0.6 0 0 0 0.6
31-03-2020 -- (--) -- (--) -- -- (--) -- (--) 0.4 0.4 0 0 0
30-03-2020 -- (--) -- (--) -- -- (--) -- (--) 9.6 0.6 0.8 0.4 7.8
29-03-2020 -- (--) -- (--) -- -- (--) -- (--) 0.4 0 0 0 0.4
28-03-2020 -- (--) -- (--) -- 12.5 (18:40) 6.67 (18:30) 0 0 0 0 0
27-03-2020 -- (--) -- (--) -- 18.89 (14:00) 10 (14:40) 0 0 0 0 0
26-03-2020 -- (--) -- (--) -- 13.33 (22:40) 6.94 (23:10) 0 0 0 0 0
25-03-2020 -- (--) -- (--) -- 6.11 (15:40) 3.89 (05:20) 0 0 0 0 0
24-03-2020 -- (--) -- (--) -- 11.67 (17:40) 5.28 (19:50) 0 0 0 0 0
23-03-2020 -- (--) -- (--) -- 13.06 (18:30) 6.67 (18:10) 0 0 0 0 0
22-03-2020 -- (--) -- (--) -- 10.83 (21:00) 5.28 (20:50) 0 0 0 0 0
21-03-2020 -- (--) -- (--) -- 6.39 (15:30) 5 (15:30) 0 0 0 0 0
20-03-2020 -- (--) -- (--) -- 6.39 (17:10) 3.33 (16:50) 0.2 0 0.2 0 0
19-03-2020 -- (--) -- (--) -- -- (--) -- (--) 0 0 0 0 0
18-03-2020 -- (--) -- (--) -- -- (--) -- (--) 0 0 0 0 0
17-03-2020 -- (--) -- (--) -- 12.78 (17:10) 7.22 (16:50) 0 0 0 0 0
16-03-2020 -- (--) -- (--) -- 15.83 (09:00) 8.06 (08:00) 3 1.4 0.6 1 0
15-03-2020 -- (--) -- (--) -- -- (--) -- (--) 10 0 0 4.6 5.4
14-03-2020 -- (--) -- (--) -- 8.06 (19:50) 5.28 (07:40) 0 0 0 0 0
13-03-2020 -- (--) -- (--) -- 12.78 (11:40) 6.39 (08:00) 0 0 0 0 0
12-03-2020 -- (--) -- (--) -- 10.28 (14:50) 6.67 (14:50) 0 0 0 0 0
11-03-2020 -- (--) -- (--) -- 6.67 (08:20) 5.28 (08:20) 0 0 0 0 0
10-03-2020 -- (--) -- (--) -- 6.67 (23:59) 5 (22:30) 0 0 0 0 0
09-03-2020 -- (--) -- (--) -- 14.17 (00:40) 10 (00:40) 0 0 0 0 0

Gráficas

Temp. máximas Temp. mínimas Temp. medias Precipitaciones Rachas de viento máximas Velocidades máximas media en intervalos de 10 minutos

Datos horarios

Fecha y hora oficial Temperatura (ºC) Velocidad del viento (km/h) Dirección del viento Racha (km/h) Dirección de racha Precipitación (mm) Presión (hPa) Tendencia (hPa) Humedad (%)
2020-04-07 23:00:00 12.7 8 Este 17 Este 0 1015.8 1.2 88
2020-04-07 22:00:00 12.6 10 Este -- -- 0 1015.4 1 88
2020-04-07 21:00:00 12.7 10 Este 29 Nordeste 0.2 1014.9 1.3 87
2020-04-07 20:00:00 13 13 Nordeste 21 Nordeste 0 1014.6 1 86
2020-04-07 19:00:00 13.1 7 Este 27 Este 0 1014.4 0.9 84
2020-04-07 18:00:00 13.3 14 Este 27 Este 0 1013.6 0.1 83
2020-04-07 17:00:00 13.5 13 Nordeste 27 Nordeste 0 1013.6 -0.2 83
2020-04-07 16:00:00 13.6 12 Nordeste 26 Nordeste 0 1013.5 -0.4 82
2020-04-07 15:00:00 13.7 15 Nordeste 29 Nordeste 0 1013.5 -0.5 80
2020-04-07 14:00:00 14.2 14 Nordeste -- -- 0 1013.8 0.1 78
2020-04-07 13:00:00 14.1 -- -- -- -- 0 1013.9 0.1 78
2020-04-07 12:00:00 14.1 9 Nordeste 20 Nordeste 0 1014 0.4 80
2020-04-07 11:00:00 13.7 5 Este 12 Nordeste 0 1013.7 0.1 80
2020-04-07 10:00:00 13.2 5 Nordeste 18 Este 0 1013.8 0.2 83
2020-04-07 09:00:00 11.8 11 Este 20 Este 0 1013.6 0 85
2020-04-07 08:00:00 11.6 11 Este 25 Este 0 1013.6 0.2 85
2020-04-07 07:00:00 11.8 13 Nordeste 28 Nordeste 0 1013.6 -0.3 86
2020-04-07 06:00:00 11.8 15 Este 36 Este 0 1013.6 -0.3 86
2020-04-07 05:00:00 11.8 22 Este 37 Este 0 1013.4 -0.7 86
2020-04-07 04:00:00 11.6 23 Este 40 Este 0 1013.9 -0.1 87
2020-04-07 03:00:00 11.7 22 Este 37 Este 0 1013.9 -0.4 87
2020-04-07 02:00:00 11.7 18 Este 37 Este 0 1014.1 -0.3 86
2020-04-07 01:00:00 11.8 17 Nordeste 36 Nordeste 0 1014 -0.2 86
2020-04-07 00:00:00 11.9 19 Nordeste 42 Este 0 1014.3 0.4 85
2020-04-06 23:00:00 12 22 Nordeste 45 Este 0 1014.4 0.6 85
2020-04-06 22:00:00 12.1 26 Este 44 Este 0 1014.2 0.6 85
2020-04-06 21:00:00 12.4 22 Este 40 Este 0 1013.9 0.5 83
2020-04-06 20:00:00 12.6 22 Este 37 Este 0 1013.8 0.3 83
2020-04-06 19:00:00 12.7 20 Nordeste 37 Nordeste 0 1013.6 0.1 83
2020-04-06 18:00:00 13.1 17 Nordeste 29 Este 0 1013.4 0 82
2020-04-06 17:00:00 13.4 9 Este 29 Nordeste 0 1013.5 0.2 79
2020-04-06 16:00:00 13.9 11 Este 23 Este 0 1013.5 0.4 73
2020-04-06 15:00:00 14.6 12 Este 30 Este 0 1013.4 0.5 73
2020-04-06 14:00:00 13.6 10 Este 23 Nordeste 0 1013.3 0.7 76
2020-04-06 13:00:00 13.8 7 Nordeste 14 Nordeste 0 1013.1 1 78
2020-04-06 12:00:00 13.6 4 Este 10 Sudeste 0 1012.9 1.5 80
2020-04-06 11:00:00 12.4 8 Sudeste 16 Sudeste 0 1012.6 2.5 82
2020-04-06 10:00:00 11.3 11 Sudeste 18 Este 0.2 1012.1 2.8 86
2020-04-06 09:00:00 12.1 8 Sudeste 14 Sudeste 0.2 1011.4 2.9 88
2020-04-06 08:00:00 12 8 Sudeste 13 Sur 0.2 1010.1 1.8 88
2020-04-06 07:00:00 12.1 10 Sudeste 15 Sudeste 0 1009.3 1.3 87
2020-04-06 06:00:00 12 10 Sudeste 17 Sur 0 1008.5 0.8 87
2020-04-06 05:00:00 12.1 11 Sur 15 Sur 0.2 1008.3 0.9 86
2020-04-06 04:00:00 12.2 9 Sur 12 Sur 0.2 1008 1.1 85
2020-04-06 03:00:00 12.3 9 Sur 13 Sudeste 0.4 1007.7 1.3 84
2020-04-06 02:00:00 12.9 3 Sur 12 Sudeste 0 1007.4 1.7 83
2020-04-06 01:00:00 13 8 Sudoeste 23 Oeste 0 1006.9 2.7 83
2020-04-06 00:00:00 13.2 17 Oeste 31 Oeste 0 1006.4 3.2 82
2020-04-05 23:00:00 13.5 13 Oeste 36 Noroeste 0 1005.7 3.1 81
2020-04-05 22:00:00 14.7 18 Oeste 39 Oeste 0 1004.2 2.2 77
2020-04-05 21:00:00 15.5 22 Oeste 33 Oeste 0 1003.2 1.8 72
2020-04-05 20:00:00 15.8 21 Oeste 36 Oeste 0 1002.6 1.2 69
2020-04-05 19:00:00 18.8 13 Sudoeste 40 Sudoeste 0 1002 1.4 49
2020-04-05 18:00:00 18.6 15 Sudoeste 45 Sur 0 1001.4 1.2 52
2020-04-05 17:00:00 19.4 18 Sur 45 Sur 0 1001.4 1.1 49
2020-04-05 16:00:00 21.6 14 Sudoeste 41 Oeste 0 1000.6 0.1 39
2020-04-05 15:00:00 21.8 21 Sudoeste 50 Sur 0 1000.2 -0.1 38
2020-04-05 14:00:00 22.1 21 Sudoeste 37 Sur 0 1000.3 -0.2 40
2020-04-05 13:00:00 18.3 15 Este 24 Este 0 1000.5 0.4 51
2020-04-05 12:00:00 19.4 14 Sudeste 35 Sudeste 0 1000.3 -0.2 48
2020-04-05 11:00:00 18.9 14 Sudeste 32 Sudeste 0 1000.5 0.7 46
2020-04-05 10:00:00 16.6 15 Sudeste 22 Sudeste 0 1000.1 0.5 52
2020-04-05 09:00:00 17.5 9 Sudeste 26 Sudeste 0 1000.5 1.1 45
2020-04-05 08:00:00 16.8 14 Sudeste 22 Sudeste 0 999.8 0.2 45
2020-04-05 07:00:00 15.9 14 Sudeste 17 Sur 0 999.6 -0.4 48
2020-04-05 06:00:00 14 14 Sur 20 Sur 0 999.4 -1 56
2020-04-05 05:00:00 15 13 Sudeste 27 Sur 0 999.6 -1 50
2020-04-05 04:00:00 13.4 15 Sur 25 Sur 0 1000 -0.6 58
2020-04-05 03:00:00 13.7 18 Sur 26 Sudeste 0 1000.4 -0.2 57
2020-04-05 02:00:00 14.1 18 Sudeste 23 Sudeste 0 1000.6 -0.3 55
2020-04-05 01:00:00 14.5 9 Sur 24 Sudoeste 0 1000.6 -0.4 54
2020-04-05 00:00:00 15 15 Sudeste 21 Sudeste 0 1000.6 -0.4 53
2020-04-04 23:00:00 15.7 15 Sudeste 19 Sudeste 0 1000.9 -0.4 47
2020-04-04 22:00:00 15.1 12 Sudeste 19 Este 0 1001 -0.4 51
2020-04-04 21:00:00 13.4 15 Este 27 Este 0 1001 -0.9 70
2020-04-04 20:00:00 14.2 15 Este 35 Este 0 1001.3 -0.9 64
2020-04-04 19:00:00 14.9 15 Este 27 Este 0 1001.4 -1.3 63
2020-04-04 18:00:00 14.7 -- -- -- -- 0 1001.9 -1.3 71
2020-04-04 17:00:00 14.3 12 Este 21 Nordeste 0 1002.2 -1.6 72
2020-04-04 16:00:00 15.4 5 Nordeste 8 Este 0 1002.7 -1.7 66
2020-04-04 15:00:00 16.1 4 Norte 11 Este 0 1003.2 -1.7 53
2020-04-04 14:00:00 15.2 4 Nordeste -- -- 0 1003.8 -1.3 63
2020-04-04 13:00:00 15.2 4 Norte -- -- 0 1004.4 -0.6 68
2020-04-04 12:00:00 15.6 7 Nordeste -- -- 0 1004.9 0 63
2020-04-04 11:00:00 13.6 5 Sudoeste 13 Sur 0 1005.1 0.4 68
2020-04-04 10:00:00 12.4 9 Sur 21 Sur 0 1005 0.1 67
2020-04-04 09:00:00 9.4 16 Sur 27 Sudeste 0 1004.9 -0.4 73
2020-04-04 08:00:00 9.6 16 Sudeste 25 Sudeste 0 1004.7 -1.1 72
2020-04-04 07:00:00 8.8 12 Sudeste 25 Sudeste 0 1004.9 -1.4 78
2020-04-04 06:00:00 8.4 15 Sudeste 20 Sudeste 0 1005.3 -1.4 82
2020-04-04 05:00:00 8.5 11 Sur 15 Sur 0 1005.8 -1.1 81
2020-04-04 04:00:00 9.5 9 Sudoeste 13 Sudoeste 0 1006.3 -0.8 79
2020-04-04 03:00:00 8.7 4 Sudoeste 15 Sudeste 0 1006.7 -0.4 80
2020-04-04 02:00:00 9 10 Sur 13 Sur 0 1006.9 -0.2 80
2020-04-04 01:00:00 10.1 7 Sudeste 19 Este 0 1007.1 0.1 79
2020-04-04 00:00:00 11.1 15 Este 31 Este 0 1007.1 0.4 80
2020-04-03 23:00:00 11.2 15 Este 32 Nordeste 0 1007.1 0.2 77
2020-04-03 22:00:00 11.5 13 Este 39 Este 0 1007 0 75
2020-04-03 21:00:00 11.7 23 Este 46 Nordeste 0 1006.7 -0.6 73
2020-04-03 20:00:00 12.1 24 Nordeste 52 Nordeste 0 1006.9 -0.6 71
2020-04-03 19:00:00 12.2 27 Nordeste 60 Nordeste 0 1007 -1.1 69
2020-04-03 18:00:00 12.4 31 Nordeste 61 Nordeste 0 1007.3 -1.6 66
2020-04-03 17:00:00 12.3 34 Nordeste 61 Nordeste 0 1007.5 -1.9 66
2020-04-03 16:00:00 12.3 33 Nordeste 64 Nordeste 0 1008.1 -2.1 66
2020-04-03 15:00:00 12.5 31 Nordeste 55 Nordeste 0 1008.9 -1.9 68
2020-04-03 14:00:00 12.5 26 Nordeste 54 Nordeste 0 1009.4 -1.4 68
2020-04-03 13:00:00 12.3 22 Nordeste 49 Nordeste 0 1010.2 -0.9 66
2020-04-03 12:00:00 12.3 19 Nordeste 36 Nordeste 0 1010.8 -0.4 65
2020-04-03 11:00:00 11.5 14 Nordeste 27 Este 0 1010.8 -0.1 65
2020-04-03 10:00:00 10.4 8 Sudeste -- -- 0 1011.1 0.4 70
2020-04-03 09:00:00 8.6 -- -- -- -- 0 1011.2 0.2 71
2020-04-03 08:00:00 8.1 -- -- -- -- 0 1010.9 -0.4 71
2020-04-03 07:00:00 9 12 Sudeste 23 Sudeste 0 1010.7 -1.1 69
2020-04-03 06:00:00 9.3 9 Este 31 Este 0 1011 -1.2 68
2020-04-03 05:00:00 9.4 12 Este 26 Este 0 1011.3 -1.2 68
2020-04-03 04:00:00 9.6 10 Este 28 Este 0 1011.8 -0.9 68
2020-04-03 03:00:00 10 15 Este 32 Este 0 1012.2 -0.8 67
2020-04-03 02:00:00 10.1 15 Nordeste 33 Nordeste 0 1012.5 -0.4 67
2020-04-03 01:00:00 10.1 10 Norte 36 Nordeste 0 1012.7 0.1 68
2020-04-03 00:00:00 10.3 15 Nordeste 32 Nordeste 0 1013 0.9 70
2020-04-02 23:00:00 10.5 12 Norte 31 Nordeste 0 1012.9 1 71
2020-04-02 22:00:00 10.6 8 Oeste 28 Este 0 1012.6 1.1 72
2020-04-02 21:00:00 10.9 8 Noroeste 23 Nordeste 0 1012.1 0.8 73
2020-04-02 20:00:00 11.3 7 Oeste -- -- 0 1011.9 0.9 72
2020-04-02 19:00:00 12 -- -- -- -- 0 1011.5 0.3 71
2020-04-02 18:00:00 12.8 8 Oeste 26 Norte 0 1011.3 0.2 70
2020-04-02 17:00:00 13 8 Noroeste 28 Nordeste 0 1011 -0.1 66
2020-04-02 16:00:00 13.3 8 Oeste 26 Este 0 1011.2 0.2 71
2020-04-02 15:00:00 13 7 Noroeste 27 Nordeste 0 1011.1 0.3 75
2020-04-02 14:00:00 13.1 10 Norte 36 Nordeste 0 1011.1 1 76
2020-04-02 13:00:00 13.3 9 Norte 39 Este 0 1011 1.8 80
2020-04-02 12:00:00 12.3 9 Noroeste 29 Nordeste 0 1010.8 2.1 81
2020-04-02 11:00:00 12 9 Norte 31 Nordeste 0 1010.1 2.1 81
2020-04-02 10:00:00 11.9 8 Norte -- -- 0 1009.2 1.5 84
2020-04-02 09:00:00 11.8 -- -- -- -- 0 1008.7 1.4 86
2020-04-02 08:00:00 11.7 -- -- -- -- 0 1008 1 86
2020-04-02 07:00:00 11.5 4 Norte 26 Nordeste 0 1007.7 0.7 86
2020-04-02 06:00:00 11.5 6 Norte 25 Nordeste 0 1007.3 0.2 87
2020-04-02 05:00:00 11.7 8 Noroeste 36 Nordeste 0 1007 -0.2 87
2020-04-02 04:00:00 11.7 10 Norte 35 Este 0 1007 -0.2 88
2020-04-02 03:00:00 11.8 10 Oeste 30 Este 0 1007.1 -0.3 88
2020-04-02 02:00:00 11.8 10 Oeste 25 Noroeste 0 1007.2 -0.1 87
2020-04-02 01:00:00 11.7 10 Oeste 24 Oeste 0 1007.2 0.4 87
2020-04-02 00:00:00 11.7 8 Noroeste 31 Nordeste 0 1007.4 1.3 86
2020-04-01 23:00:00 11.8 12 Nordeste 34 Nordeste 0 1007.3 1.5 86
2020-04-01 22:00:00 11.9 8 Norte 31 Nordeste 0.2 1006.8 1.3 86
2020-04-01 21:00:00 12 8 Norte 30 Nordeste 0 1006.1 0.7 86
2020-04-01 20:00:00 11.9 14 Nordeste 29 Nordeste 0.4 1005.8 0.5 84
2020-04-01 19:00:00 12.8 5 Noroeste 8 Oeste 0 1005.5 0.2 80
2020-04-01 18:00:00 13.4 5 Oeste 10 Oeste 0 1005.4 0.2 80
2020-04-01 17:00:00 13.7 8 Oeste 13 Sudoeste 0 1005.3 0.1 80
2020-04-01 16:00:00 12.2 8 Noroeste 15 Oeste 0 1005.3 0 83
2020-04-01 15:00:00 12.2 11 Oeste 17 Oeste 0 1005.2 0 80
2020-04-01 14:00:00 12.3 10 Oeste 16 Oeste 0 1005.2 0.2 77
2020-04-01 13:00:00 12.2 6 Oeste 14 Oeste 0 1005.3 1 74
2020-04-01 12:00:00 11.5 10 Oeste 15 Oeste 0 1005.2 1.3 72
2020-04-01 11:00:00 11.1 3 Oeste 15 Sudoeste 0 1005 1.9 74
2020-04-01 10:00:00 9 9 Sudoeste 16 Sur 0 1004.3 1.6 80
2020-04-01 09:00:00 7.3 12 Sur 15 Sur 0 1003.9 1.2 81
2020-04-01 08:00:00 7 11 Sur -- -- 0 1003.1 0.5 81
2020-04-01 07:00:00 7.7 -- -- -- -- 0 1002.7 0.1 78
2020-04-01 06:00:00 8.4 -- -- -- -- 0 1002.7 -0.3 77
2020-04-01 05:00:00 8 -- -- -- -- 0 1002.6 -0.3 78
2020-04-01 04:00:00 9.6 -- -- -- -- 0 1002.6 -0.5 77
2020-04-01 03:00:00 10.1 11 Este 36 Nordeste 0 1003 0.3 75
2020-04-01 02:00:00 10.1 21 Este -- -- 0 1002.9 0.3 76
2020-04-01 01:00:00 10.2 18 Este 53 Este 0 1003.1 0.4 76
2020-04-01 00:00:00 10.1 31 Este -- -- 0 1002.7 0.6 78
2020-03-31 23:00:00 9.9 -- -- -- -- 0 1002.6 1 79
2020-03-31 22:00:00 9.6 -- -- -- -- 0 1002.7 1.2 79
2020-03-31 21:00:00 9.5 33 Este 67 Este 0 1002.1 0.3 79
2020-03-31 20:00:00 9.4 33 Este -- -- 0 1001.6 -0.5 80
2020-03-31 19:00:00 9.4 -- -- -- -- 0 1001.5 -1 77
2020-03-31 18:00:00 9.3 33 Este -- -- 0 1001.8 -1.1 73
2020-03-31 17:00:00 9.1 29 Este -- -- 0 1002.1 -1.4 70
2020-03-31 16:00:00 9 32 Este -- -- 0 1002.5 -1 70
2020-03-31 15:00:00 8.4 32 Este 57 Nordeste 0 1002.9 -1.1 72
2020-03-31 14:00:00 8.1 36 Este -- -- 0 1003.5 -1.1 71
2020-03-31 13:00:00 8.3 37 Este 69 Nordeste 0 1003.5 -1.3 64
2020-03-31 12:00:00 7.9 35 Este 63 Nordeste 0 1004 -1 68
2020-03-31 11:00:00 7.1 26 Este 48 Este 0 1004.6 -0.3 67
2020-03-31 10:00:00 6.1 21 Este 42 Este 0 1004.8 0 75
2020-03-31 09:00:00 5.7 16 Este 30 Este 0 1005 -0.7 81
2020-03-31 08:00:00 3.7 8 Sudeste 17 Sudeste 0 1004.9 -1.7 83
2020-03-31 07:00:00 3.2 13 Sur 17 Sur 0 1004.8 -2.5 84
2020-03-31 06:00:00 4.3 7 Sudeste 19 Nordeste 0 1005.7 -2.7 81
2020-03-31 05:00:00 4.8 8 Sudeste 21 Sudeste 0.2 1006.6 -2.3 78
2020-03-31 04:00:00 4.8 10 Sudeste 39 Este 0 1007.3 -2.6 76
2020-03-31 03:00:00 6 15 Este 65 Nordeste 0.2 1008.4 -2.2 75
2020-03-31 02:00:00 6.3 15 Este -- -- 0 1008.9 -2.6 75
2020-03-31 01:00:00 6.4 22 Este 64 Este 0 1009.9 -1.8 78
2020-03-31 00:00:00 6.2 40 Este 66 Este 0.6 1010.6 -0.7 78
2020-03-30 23:00:00 5 11 Noroeste -- -- 4.6 1011.5 0.4 81
2020-03-30 22:00:00 6.1 18 Este -- -- 1.2 1011.7 0.2 75
2020-03-30 21:00:00 6.1 39 Este -- -- 0.4 1011.3 -1.1 75
2020-03-30 20:00:00 6 -- -- -- -- 1 1011.1 -1.6 76
2020-03-30 19:00:00 7.2 19 Nordeste 61 Nordeste 0 1011.5 -1.6 70
2020-03-30 18:00:00 6.7 27 Este 66 Este 0 1012.4 -1.4 65
2020-03-30 17:00:00 6.3 26 Nordeste -- -- 0.2 1012.7 -1.6 69
2020-03-30 16:00:00 7.2 24 Nordeste -- -- 0.2 1013.1 -1.2 68
2020-03-30 15:00:00 8.4 26 Nordeste -- -- 0 1013.8 -1.3 59
2020-03-30 14:00:00 8.1 27 Nordeste 73 Nordeste 0 1014.3 -0.7 63
2020-03-30 13:00:00 7.9 23 Norte -- -- 0 1014.3 -0.5 63
2020-03-30 12:00:00 7.8 33 Nordeste -- -- 0 1015.1 -0.2 64
2020-03-30 11:00:00 7.5 40 Nordeste -- -- 0.4 1015 0.8 63
2020-03-30 10:00:00 7.6 -- -- -- -- 0.2 1014.8 0.7 69
2020-03-30 09:00:00 6.7 18 Este 72 Este 0.2 1015.3 0.9 71
2020-03-30 08:00:00 7.4 22 Noroeste -- -- 0 1014.2 -1.1 71
2020-03-30 07:00:00 8.8 35 Nordeste 77 Nordeste 0 1014.1 -1.8 66
2020-03-30 06:00:00 8.8 33 Nordeste -- -- 0 1014.4 -2.1 65
2020-03-30 05:00:00 8.3 28 Este 58 Norte 0.2 1015.3 -1.4 69
2020-03-30 04:00:00 8.5 22 Este 51 Este 0 1015.9 -0.8 67
2020-03-30 03:00:00 8.4 33 Este 72 Este 0 1016.5 -0.3 70
2020-03-30 02:00:00 7.9 31 Este 70 Este 0.4 1016.7 0.3 79
2020-03-30 01:00:00 8.7 33 Este -- -- 0 1016.7 0.6 77
2020-03-30 00:00:00 9.4 29 Este 68 Nordeste 0 1016.8 1.4 75
2020-03-29 23:00:00 8.8 38 Nordeste -- -- 0.4 1016.4 1.6 79
2020-03-29 22:00:00 9.5 37 Nordeste 75 Nordeste 0 1016.1 1.7 77
2020-03-29 21:00:00 9.8 37 Nordeste -- -- 0 1015.4 1.2 80
2020-03-29 20:00:00 10.1 -- -- -- -- 0 1014.8 0.6 82
2020-03-29 19:00:00 10.8 -- -- -- -- 0 1014.4 0 82
2020-03-29 18:00:00 12 36 Nordeste 62 Nordeste 0 1014.2 -0.4 77
2020-03-29 17:00:00 13.9 15 Norte 45 Nordeste 0 1014.2 -0.5 66
2020-03-29 16:00:00 13.3 19 Nordeste 40 Nordeste 0 1014.4 -0.4 68
2020-03-29 15:00:00 12.2 21 Nordeste 47 Nordeste 0 1014.6 -0.1 71
2020-03-29 14:00:00 12.2 25 Nordeste 48 Nordeste 0 1014.7 0.1 72
2020-03-29 13:00:00 12.1 27 Nordeste 53 Nordeste 0 1014.8 0.4 72
2020-03-29 12:00:00 13.2 18 Nordeste 39 Nordeste 0 1014.7 0.5 72
2020-03-29 11:00:00 12.4 15 Nordeste 31 Nordeste 0 1014.6 0.8 73
2020-03-29 10:00:00 11.4 8 Este 14 Este 0 1014.4 1 75
2020-03-29 09:00:00 8.9 9 Sudeste 11 Sudeste 0 1014.2 0.9 77
2020-03-29 08:00:00 9 7 Este 13 Este 0 1013.8 0.2 76
2020-03-29 07:00:00 10.4 8 Este 14 Este 0 1013.4 -0.4 77
2020-03-29 06:00:00 10.2 6 Este 12 Este 0 1013.3 -0.9 77
2020-03-29 05:00:00 10.5 6 Este 13 Este 0 1013.6 -0.8 77
2020-03-29 03:00:00 11.5 12 Este 21 Este 0 1014.2 0 76
2020-03-29 01:00:00 11.1 6 Este 15 Este 0 1014.4 0.3 76
2020-03-29 00:00:00 11.3 8 Este 17 Este 0 1014.3 0.6 76
2020-03-28 23:00:00 11.2 9 Este 23 Este 0 1014.2 1.3 77
2020-03-28 22:00:00 11.5 10 Este 28 Nordeste 0 1014.1 1.7 77
2020-03-28 21:00:00 12.1 16 Nordeste 35 Nordeste 0 1013.7 1.9 77
2020-03-28 20:00:00 12.2 20 Nordeste 38 Nordeste 0 1012.9 1.5 76
2020-03-28 19:00:00 12.5 23 Nordeste 45 Nordeste 0 1012.4 1 74
2020-03-28 18:00:00 12.8 21 Nordeste 41 Nordeste 0 1011.8 0.2 74
2020-03-28 17:00:00 13.6 17 Nordeste 44 Nordeste 0 1011.4 -0.4 72
2020-03-28 16:00:00 13.9 16 Nordeste 40 Nordeste 0 1011.4 -0.5 70
2020-03-28 15:00:00 14.2 18 Nordeste 39 Nordeste 0 1011.6 -0.7 69
2020-03-28 14:00:00 14.3 15 Nordeste 39 Nordeste 0 1011.8 -0.5 69
2020-03-28 13:00:00 13.8 13 Nordeste 35 Nordeste 0 1011.9 0 70
2020-03-28 12:00:00 13.6 10 Norte 33 Nordeste 0 1012.3 0.9 69
2020-03-28 11:00:00 12.3 3 Norte 8 Norte 0 1012.3 1.5 63
2020-03-28 10:00:00 10.9 6 Sudeste 18 Sur 0 1011.9 1.7 65
2020-03-28 09:00:00 7.6 14 Sur 22 Sudeste 0 1011.4 1.6 73
2020-03-28 08:00:00 4.9 17 Sur 23 Sur 0 1010.8 1.5 78
2020-03-28 07:00:00 4.6 20 Sur 25 Sudeste 0 1010.2 1 78
2020-03-28 06:00:00 5.4 18 Sudeste 26 Sudeste 0 1009.8 0.6 77
2020-03-28 05:00:00 5.7 18 Sudeste 24 Sudeste 0 1009.3 0.1 77
2020-03-28 04:00:00 6.5 17 Sudeste 23 Sudeste 0 1009.2 0.4 75
2020-03-28 03:00:00 6.8 18 Sudeste 24 Sudeste 0 1009.2 0.2 74
2020-03-28 02:00:00 7.7 16 Sudeste 22 Sudeste 0 1009.2 0.3 71
2020-03-28 01:00:00 8.6 17 Sudeste 24 Sudeste 0 1008.8 0.3 70
2020-03-28 00:00:00 8.9 12 Sudeste 20 Sudeste 0 1009 1.1 68
2020-03-27 23:00:00 9.3 10 Sudeste 29 Este 0 1008.9 2.1 68
2020-03-27 22:00:00 10.6 14 Este 36 Este 0 1008.5 2.3 67
2020-03-27 21:00:00 11.1 25 Este 47 Nordeste 0 1007.9 2.2 65
2020-03-27 20:00:00 11.4 28 Este 51 Nordeste 0 1006.8 1.2 65
2020-03-27 19:00:00 11.9 27 Nordeste -- -- 0 1006.2 0.7 65
2020-03-27 18:00:00 12.2 28 Nordeste 64 Nordeste 0 1005.7 0 62
2020-03-27 17:00:00 12.4 32 Nordeste 63 Nordeste 0 1005.6 -0.1 61
2020-03-27 16:00:00 12.4 34 Nordeste 60 Nordeste 0 1005.5 -0.5 58
2020-03-27 15:00:00 12.7 27 Nordeste 65 Nordeste 0 1005.7 -1.3 58
2020-03-27 14:00:00 12.3 35 Nordeste 68 Nordeste 0 1005.7 -1.5 56
2020-03-27 13:00:00 12.1 33 Nordeste 60 Nordeste 0 1006 -1.2 54
2020-03-27 12:00:00 11.8 19 Nordeste 50 Nordeste 0 1007 -0.4 52
2020-03-27 11:00:00 11.7 21 Nordeste 44 Este 0 1007.2 -0.1 46
2020-03-27 10:00:00 11 23 Este 44 Este 0 1007.2 0.4 48
2020-03-27 09:00:00 9.4 13 Sudeste 22 Sudeste 0 1007.4 0.8 60
2020-03-27 08:00:00 5.3 13 Sudeste 21 Sudeste 0 1007.3 0.6 72
2020-03-27 07:00:00 4.3 14 Sudeste 19 Sudeste 0 1006.8 0.1 74
2020-03-27 06:00:00 5.1 12 Sudeste 23 Sudeste 0 1006.6 -0.2 72
2020-03-27 05:00:00 5.4 14 Sudeste 22 Sudeste 0 1006.7 -0.3 72
2020-03-27 04:00:00 5.8 15 Sudeste 21 Sudeste 0 1006.7 -0.4 71
2020-03-27 03:00:00 7.1 10 Sudeste 18 Sudeste 0 1006.8 -0.5 67
2020-03-27 02:00:00 8.9 12 Este 34 Nordeste 0 1007 -0.4 57
2020-03-27 01:00:00 9.8 18 Nordeste 51 Nordeste 0 1007.1 -0.3 58
2020-03-27 00:00:00 10 14 Nordeste 42 Nordeste 0 1007.3 -0.1 62
2020-03-26 23:00:00 10.4 18 Nordeste 48 Nordeste 0 1007.4 -0.1 64
2020-03-26 22:00:00 10.9 22 Nordeste 46 Nordeste 0 1007.4 0.1 65
2020-03-26 21:00:00 11.4 9 Noroeste 33 Nordeste 0 1007.4 0.4 66
2020-03-26 20:00:00 11.1 5 Sudoeste 20 Sudoeste 0 1007.5 0.2 63
2020-03-26 19:00:00 12 8 Sudoeste 22 Oeste 0 1007.3 -0.2 60
2020-03-26 18:00:00 12.7 8 Sudoeste 21 Sudeste 0 1007 -0.8 57
2020-03-26 17:00:00 13.4 9 Oeste 23 Nordeste 0 1007.3 -1.1 56
2020-03-26 16:00:00 13.2 8 Oeste 23 Nordeste 0 1007.5 -1.2 56
2020-03-26 15:00:00 13.5 6 Noroeste 24 Nordeste 0 1007.8 -1.5 54
2020-03-26 14:00:00 13.4 6 Oeste 25 Norte 0 1008.4 -0.8 56
2020-03-26 13:00:00 12.5 8 Norte 23 Nordeste 0 1008.7 -0.5 59
2020-03-26 12:00:00 12.6 5 Nordeste 16 Nordeste 0 1009.3 0.3 64
2020-03-26 11:00:00 11.6 4 Norte 12 Sudeste 0 1009.2 0.3 69
2020-03-26 10:00:00 10.1 10 Sudeste 19 Sudeste 0 1009.2 0.7 75
2020-03-26 09:00:00 8 15 Sudeste 22 Sudeste 0 1009 0.5 82
2020-03-26 08:00:00 5.7 17 Sudeste 23 Sudeste 0 1008.9 0.5 85
2020-03-26 07:00:00 5.5 18 Sudeste 24 Sudeste 0 1008.5 -0.1 85
2020-03-26 06:00:00 5.9 19 Sudeste 26 Sudeste 0 1008.5 -0.4 86
2020-03-26 05:00:00 6.2 15 Sudeste 21 Sudeste 0 1008.4 -0.7 86
2020-03-26 04:00:00 7.2 14 Sudeste 22 Sudeste 0 1008.6 -0.8 85
2020-03-26 03:00:00 7.4 16 Sudeste 22 Sudeste 0 1008.9 -0.7 85
2020-03-26 02:00:00 8 14 Sudeste 19 Sudeste 0 1009.1 -0.9 85
2020-03-26 01:00:00 8.7 13 Sudeste 18 Sudeste 0 1009.4 -0.4 86
2020-03-26 00:00:00 9 12 Sudeste 15 Sudeste 0 1009.6 0 85
2020-03-25 23:00:00 9.9 8 Sudeste 10 Sudeste 0 1010 0.8 85
2020-03-25 22:00:00 11.1 4 Sudeste 8 Nordeste 0 1009.8 0.8 83
2020-03-25 21:00:00 11.5 0 Calma 6 Noroeste 0 1009.6 0.7 83
2020-03-25 20:00:00 12.1 4 Oeste 13 Nordeste 0 1009.2 0.4 81
2020-03-25 19:00:00 13 6 Nordeste 19 Norte 0 1009 -0.3 79
2020-03-25 18:00:00 13.4 8 Nordeste 18 Nordeste 0 1008.9 -0.4 79
2020-03-25 17:00:00 13.5 7 Nordeste 21 Norte 0 1008.8 -0.4 81
2020-03-25 16:00:00 13.6 7 Norte 22 Nordeste 0 1009.3 0.1 82
2020-03-25 15:00:00 14 5 Norte 20 Nordeste 0 1009.3 -0.1 81
2020-03-25 14:00:00 14.3 6 Nordeste 19 Nordeste 0 1009.2 -0.1 82
2020-03-25 13:00:00 13.2 8 Nordeste 19 Nordeste 0 1009.2 -0.4 82
2020-03-25 12:00:00 13.4 9 Nordeste 16 Nordeste 0 1009.4 0 83
2020-03-25 11:00:00 13.3 4 Nordeste 9 Noroeste 0 1009.3 0.1 85
2020-03-25 10:00:00 12.5 3 Norte 11 Sur 0 1009.6 1.1 88
2020-03-25 09:00:00 9.7 9 Sur 14 Sur 0 1009.4 1.1 89
2020-03-25 08:00:00 8.6 9 Sur 13 Sur 0 1009.2 1.1 89
2020-03-25 07:00:00 7.6 12 Sur 16 Sur 0 1008.5 0.3 89
2020-03-25 06:00:00 8.2 12 Sudeste 16 Sur 0 1008.3 -0.1 89
2020-03-25 05:00:00 8.5 10 Sur 14 Sur 0 1008.1 -0.4 88
2020-03-25 04:00:00 8.4 10 Sur 13 Sudeste 0 1008.2 -0.7 88
2020-03-25 03:00:00 8.6 10 Sudeste 14 Sudeste 0 1008.4 -0.6 88
2020-03-25 02:00:00 9 11 Sur 14 Sur 0 1008.5 -0.7 87
2020-03-25 01:00:00 9.5 8 Sur 11 Sur 0 1008.9 0 86
2020-03-25 00:00:00 11.7 12 Sudoeste 14 Sudoeste 0 1009 0.4 86
2020-03-24 23:00:00 11.5 3 Sudoeste 8 Sudoeste 0 1009.2 1 85
2020-03-24 22:00:00 12.2 3 Oeste 12 Nordeste 0 1008.9 0.8 85
2020-03-24 21:00:00 12.7 4 Este 30 Nordeste 0 1008.6 0.6 85
2020-03-24 20:00:00 13.1 17 Nordeste 39 Nordeste 0 1008.2 0.1 84
2020-03-24 19:00:00 13.7 15 Nordeste 41 Nordeste 0 1008.1 -0.4 82
2020-03-24 18:00:00 14.2 15 Nordeste 42 Este 0 1008 -1 78
2020-03-24 17:00:00 14.8 13 Norte 36 Nordeste 0 1008.1 -1.5 77
2020-03-24 16:00:00 14.4 12 Nordeste 30 Nordeste 0 1008.5 -1.4 81
2020-03-24 15:00:00 14 17 Nordeste 32 Nordeste 0 1009 -0.9 81
2020-03-24 14:00:00 14.4 15 Nordeste 33 Nordeste 0 1009.6 -0.5 78
2020-03-24 13:00:00 14.7 13 Nordeste 32 Nordeste 0 1009.9 -0.6 77
2020-03-24 12:00:00 14.4 18 Nordeste 28 Nordeste 0 1009.9 -0.5 75
2020-03-24 11:00:00 14.7 9 Nordeste 18 Este 0 1010.1 -0.4 71
2020-03-24 10:00:00 13.6 13 Sudeste 24 Sudeste 0 1010.5 0.4 73
2020-03-24 09:00:00 11.6 13 Sudeste 20 Sudeste 0 1010.4 0.5 80
2020-03-24 08:00:00 9.7 17 Sudeste 24 Sudeste 0 1010.5 0.8 83
2020-03-24 07:00:00 9.5 13 Sudeste 18 Sudeste 0 1010.1 0.3 83
2020-03-24 06:00:00 10.6 10 Sudeste 15 Sudeste 0 1009.9 -0.2 82
2020-03-24 05:00:00 11.1 10 Este 18 Este 0 1009.7 -0.5 82
2020-03-24 04:00:00 11.5 9 Este 17 Este 0 1009.8 -0.6 82
2020-03-24 03:00:00 10.8 8 Este 15 Este 0 1010.1 -0.4 82
2020-03-24 02:00:00 11.5 10 Este 19 Este 0 1010.2 -0.4 81
2020-03-24 01:00:00 11.5 8 Este 21 Nordeste 0 1010.4 -0.3 84
2020-03-24 00:00:00 11.9 12 Este 33 Este 0 1010.5 0 84
2020-03-23 23:00:00 12.1 18 Este 40 Nordeste 0 1010.6 0.5 84
2020-03-23 22:00:00 12 24 Nordeste 44 Nordeste 0 1010.7 0.9 82
2020-03-23 21:00:00 12 23 Nordeste 43 Este 0 1010.5 1 81
2020-03-23 20:00:00 11.9 22 Nordeste 42 Nordeste 0 1010.1 0.4 82
2020-03-23 19:00:00 12 22 Nordeste 47 Nordeste 0 1009.8 -0.2 83
2020-03-23 18:00:00 12.1 22 Nordeste 43 Nordeste 0 1009.5 -0.7 85
2020-03-23 17:00:00 12.2 10 Norte 35 Nordeste 0 1009.7 -1 85
2020-03-23 16:00:00 12.4 8 Noroeste 36 Nordeste 0 1010 -0.8 84
2020-03-23 15:00:00 12.6 14 Nordeste 37 Nordeste 0 1010.2 -0.9 83
2020-03-23 14:00:00 12.5 13 Nordeste 37 Nordeste 0 1010.7 -0.6 85
2020-03-23 13:00:00 12.3 15 Nordeste 38 Nordeste 0 1010.8 -0.6 87
2020-03-23 12:00:00 12.2 7 Noroeste 32 Nordeste 0 1011.1 0 88
2020-03-23 11:00:00 11.6 12 Norte 36 Nordeste 0 1011.3 0.8 88
2020-03-23 10:00:00 11.6 11 Norte 33 Nordeste 0 1011.4 1.5 88
2020-03-23 09:00:00 11.4 12 Norte 36 Nordeste 0 1011.1 1.5 88
2020-03-23 08:00:00 11.4 12 Nordeste 31 Norte 0 1010.5 1.2 88
2020-03-23 07:00:00 11.4 9 Oeste 33 Norte 0 1009.9 0.7 87
2020-03-23 06:00:00 11.5 9 Noroeste 32 Nordeste 0 1009.6 0.2 87
2020-03-23 05:00:00 11.6 10 Norte 30 Nordeste 0 1009.3 -0.3 86
2020-03-23 04:00:00 11.6 14 Nordeste 31 Nordeste 0 1009.2 -0.7 86
2020-03-23 03:00:00 11.6 10 Nordeste 31 Nordeste 0 1009.4 -0.6 86
2020-03-23 02:00:00 11.6 15 Nordeste 32 Nordeste 0 1009.6 -0.1 86
2020-03-23 01:00:00 11.8 10 Norte 32 Nordeste 0 1009.9 0.4 85
2020-03-23 00:00:00 11.9 10 Nordeste 32 Nordeste 0 1010 1.2 85
2020-03-22 23:00:00 12 13 Nordeste 33 Nordeste 0 1009.7 1.5 86
2020-03-22 22:00:00 12.2 13 Nordeste 33 Nordeste 0 1009.5 1.5 86
2020-03-22 21:00:00 12.2 19 Nordeste 39 Nordeste 0 1008.8 1.3 86
2020-03-22 20:00:00 12.4 17 Nordeste 33 Nordeste 0 1008.2 0.9 86
2020-03-22 19:00:00 12.8 13 Nordeste 28 Nordeste 0 1008 0.9 84
2020-03-22 18:00:00 13.3 10 Nordeste 25 Nordeste 0 1007.5 0.4 83
2020-03-22 17:00:00 13.4 10 Nordeste 20 Nordeste 0 1007.3 0.1 81
2020-03-22 16:00:00 13.9 5 Nordeste 21 Nordeste 0 1007.1 -0.2 78
2020-03-22 15:00:00 14.5 4 Noroeste 17 Noroeste 0 1007.1 -0.2 76
2020-03-22 14:00:00 14.5 4 Nordeste 14 Oeste 0 1007.2 0 75
2020-03-22 13:00:00 14.4 5 Noroeste 11 Noroeste 0 1007.3 0.5 77
2020-03-22 12:00:00 14.4 6 Noroeste 9 Oeste 0 1007.3 0.8 78
2020-03-22 11:00:00 13.2 5 Noroeste 8 Noroeste 0 1007.2 1.2 80
2020-03-22 10:00:00 12.4 3 Oeste 9 Sudeste 0 1006.8 1.3 83
2020-03-22 09:00:00 11.6 6 Sudeste 9 Sudeste 0 1006.5 1.2 86
2020-03-22 08:00:00 11.2 6 Sur 9 Sur 0 1006 1.1 86
2020-03-22 07:00:00 11.3 6 Sur 9 Sudoeste 0 1005.5 0.7 84
2020-03-22 06:00:00 11.4 7 Sudoeste 15 Oeste 0 1005.3 0.5 84
2020-03-22 05:00:00 11.5 8 Oeste 15 Oeste 0 1004.9 0.3 85
2020-03-22 04:00:00 11.6 7 Oeste 16 Oeste 0 1004.8 0 85
2020-03-22 03:00:00 11.7 10 Oeste 15 Oeste 0 1004.8 0 85
2020-03-22 02:00:00 11.7 9 Oeste 14 Oeste 0 1004.6 -0.1 85
2020-03-22 01:00:00 11.6 7 Sudoeste 9 Oeste 0 1004.8 0.2 85
2020-03-22 00:00:00 11.6 6 Sudoeste 12 Oeste 0 1004.8 0.8 85
2020-03-21 23:00:00 11.5 4 Oeste 20 Oeste 0 1004.7 1.5 86
2020-03-21 22:00:00 11.5 12 Oeste 21 Oeste 0 1004.6 1.7 86
2020-03-21 21:00:00 11.6 11 Oeste 20 Oeste 0 1004 1.5 86
2020-03-21 20:00:00 11.6 8 Oeste 20 Oeste 0 1003.2 1 86
2020-03-21 19:00:00 11.9 8 Oeste -- -- 0 1002.9 0.7 85
2020-03-21 18:00:00 12.1 6 Noroeste 12 Oeste 0 1002.5 0 84
2020-03-21 17:00:00 12.1 9 Noroeste 16 Oeste 0 1002.2 -0.7 84
2020-03-21 16:00:00 12.2 13 Oeste 23 Oeste 0 1002.2 -0.6 85
2020-03-21 15:00:00 12.1 13 Oeste 20 Oeste 0 1002.5 -0.6 86
2020-03-21 14:00:00 12.2 14 Oeste 19 Oeste 0 1002.9 -0.3 87
2020-03-21 13:00:00 12.6 7 Oeste 15 Oeste 0 1002.8 -0.6 87
2020-03-21 12:00:00 12.1 8 Oeste 19 Oeste 0 1003.1 -0.1 88
2020-03-21 11:00:00 11.6 9 Oeste 16 Oeste 0 1003.2 0.4 89
2020-03-21 10:00:00 11.5 9 Oeste 17 Oeste 0 1003.4 0.9 89
2020-03-21 09:00:00 11 7 Sudoeste 13 Oeste 0 1003.2 0.4 89
2020-03-21 08:00:00 10.5 5 Sur 11 Sudeste 0 1002.8 -0.3 89
2020-03-21 07:00:00 11.2 6 Este 12 Norte 0 1002.5 -1 89
2020-03-21 06:00:00 11.2 6 Sudeste 14 Este 0 1002.8 -1.2 89
2020-03-21 05:00:00 11.2 6 Sudeste 9 Sudeste 0 1003.1 -1.4 89
2020-03-21 04:00:00 11.4 3 Sudeste 9 Oeste 0 1003.5 -1.4 89
2020-03-21 03:00:00 11.5 6 Noroeste 9 Oeste 0 1004 -1.4 89
2020-03-21 02:00:00 11.5 4 Este 10 Oeste 0 1004.5 -1.2 89
2020-03-21 01:00:00 11.7 5 Noroeste 9 Oeste 0 1004.9 -0.7 88
2020-03-21 00:00:00 11.8 2 Sudeste 7 Oeste 0 1005.4 -0.1 88
2020-03-20 23:00:00 11.8 2 Sudoeste 8 Noroeste 0 1005.7 0.8 88
2020-03-20 22:00:00 11.9 3 Oeste 12 Sur 0 1005.6 1 88
2020-03-20 21:00:00 12.1 3 Oeste 8 Norte 0 1005.5 0.7 88
2020-03-20 20:00:00 12 5 Nordeste 21 Nordeste 0 1004.9 0.1 88
2020-03-20 19:00:00 12.1 10 Nordeste 23 Norte 0 1004.6 -0.6 87
2020-03-20 18:00:00 12.3 8 Este 23 Nordeste 0 1004.8 -0.7 87
2020-03-20 17:00:00 12.2 12 Nordeste 22 Nordeste 0 1004.8 -1 87
2020-03-20 16:00:00 12.4 10 Nordeste 20 Nordeste 0 1005.2 -1 86
2020-03-20 15:00:00 12.3 8 Nordeste 15 Nordeste 0 1005.5 -1 86
2020-03-20 14:00:00 12.5 5 Este 12 Nordeste 0 1005.8 -0.6 86
2020-03-20 13:00:00 12.3 6 Este 13 Nordeste 0 1006.2 -0.5 87
2020-03-20 12:00:00 12.3 4 Noroeste 11 Noroeste 0 1006.5 0 87
2020-03-20 11:00:00 12.1 4 Oeste -- -- 0.2 1006.4 -0.1 88
2020-03-20 10:00:00 11.6 3 Sudoeste 9 Oeste 0 1006.7 0.3 88
2020-03-20 09:00:00 11.3 2 Oeste 10 Sur 0 1006.5 0.2 89
2020-03-20 08:00:00 11 2 Sur 6 Sudeste 0 1006.5 0 89
2020-03-20 07:00:00 11.2 4 Sudeste 12 Este 0 1006.4 -0.4 89
2020-03-20 06:00:00 11.3 5 Nordeste 13 Nordeste 0 1006.3 -1 89
2020-03-20 05:00:00 11.3 5 Este 12 Este 0 1006.5 -1 89
2020-03-20 04:00:00 11.3 4 Sur 10 Nordeste 0 1006.8 -1 89
2020-03-20 03:00:00 11.4 4 Sudoeste 13 Nordeste 0 1007.3 -1 89
2020-03-20 02:00:00 11.5 4 Este 15 Nordeste 0 1007.5 -1.1 90
2020-03-20 01:00:00 11.5 4 Este 16 Este 0 1007.8 -1.2 89
2020-03-20 00:00:00 11.4 3 Sudeste 7 Sudeste 0 1008.3 -0.6 89
2020-03-19 23:00:00 11.3 3 Sur 9 Este 0 1008.6 0.1 89
2020-03-19 22:00:00 11.5 4 Nordeste -- -- 0 1009 0 89
2020-03-19 21:00:00 11.5 4 Noroeste 14 Nordeste 0 1008.9 0.1 89
2020-03-19 20:00:00 11.6 6 Este -- -- -- 1008.5 -0.2 88
2020-03-19 19:00:00 11.7 3 Noroeste 17 Nordeste 0 1009 -0.1 88
2020-03-19 18:00:00 11.6 9 Nordeste 30 Nordeste 0 1008.8 -0.9 88
2020-03-19 17:00:00 11.7 7 Norte 28 Nordeste 0 1008.7 -1.8 87
2020-03-19 16:00:00 11.8 8 Nordeste 22 Norte 0 1009.1 -1.9 86
2020-03-19 15:00:00 12.1 6 Este -- -- 0 1009.7 -2 85
2020-03-19 14:00:00 12 -- -- -- -- 0 1010.5 -1.6 85
2020-03-19 13:00:00 11.9 6 Nordeste 17 Nordeste 0 1011 -1.3 86
2020-03-19 12:00:00 11.4 8 Este 12 Este 0 1011.7 -0.8 87
2020-03-19 11:00:00 11.5 6 Este 14 Sudeste 0 1012.1 -0.3 87
2020-03-19 10:00:00 10.7 8 Sudeste 14 Sudeste 0 1012.3 -0.2 89
2020-03-19 09:00:00 10.3 7 Sudeste 10 Sudeste 0 1012.5 -0.2 89
2020-03-19 08:00:00 10.2 7 Sudeste 11 Sudeste 0 1012.4 -0.5 89
2020-03-19 07:00:00 10.5 5 Sur 8 Sudeste 0 1012.5 -0.8 88
2020-03-19 06:00:00 10.7 3 Este 8 Sudeste 0 1012.7 -1.4 88
2020-03-19 05:00:00 11 3 Nordeste 11 Oeste 0 1012.9 -1.8 88
2020-03-19 04:00:00 11.2 4 Sur 10 Este 0 1013.3 -1.7 88
2020-03-19 03:00:00 11.2 5 Sudeste 12 Oeste 0 1014.1 -1.3 88
2020-03-19 02:00:00 11.3 6 Noroeste 13 Noroeste 0 1014.7 -1.1 87
2020-03-19 01:00:00 11.6 3 Sudeste 14 Noroeste 0 1015 -1 86
2020-03-19 00:00:00 11.5 3 Sur 10 Nordeste 0 1015.4 -0.4 86
2020-03-18 23:00:00 11.8 4 Sur 10 Nordeste 0 1015.8 0.1 85
2020-03-18 22:00:00 12.1 5 Sudoeste 10 Nordeste 0 1016 0.2 85
2020-03-18 21:00:00 12 5 Este 16 Norte 0 1015.8 0 84
2020-03-18 20:00:00 12.1 5 Noroeste 19 Nordeste 0 1015.7 -0.5 84
2020-03-18 19:00:00 12.4 6 Norte -- -- 0 1015.8 -0.9 82
2020-03-18 18:00:00 12.7 8 Nordeste 22 Norte 0 1015.8 -1.2 81
2020-03-18 17:00:00 12.9 10 Nordeste 21 Nordeste 0 1016.2 -1.3 80
2020-03-18 16:00:00 13.4 11 Nordeste 23 Nordeste 0 1016.7 -1.1 79
2020-03-18 15:00:00 13.6 10 Nordeste 22 Este 0 1017 -1.4 79
2020-03-18 14:00:00 13.5 9 Nordeste 24 Nordeste 0 1017.5 -1.3 79
2020-03-18 13:00:00 13.1 12 Nordeste 21 Nordeste 0 1017.8 -1.2 77
2020-03-18 12:00:00 13 6 Nordeste 13 Nordeste 0 1018.4 -0.5 78
2020-03-18 11:00:00 12.7 4 Nordeste 12 Este 0 1018.8 -0.2 79
2020-03-18 10:00:00 11.5 4 Este 15 Sudeste 0 1019 -0.2 83
2020-03-18 09:00:00 8.1 11 Sudeste -- -- 0 1018.9 -0.1 87
2020-03-18 08:00:00 6.6 -- -- -- -- 0 1019 0.1 88
2020-03-18 07:00:00 6.3 -- -- -- -- 0 1019.2 0 87
2020-03-18 06:00:00 6.5 17 Sudeste 19 Sur 0 1019 -0.4 87
2020-03-18 05:00:00 6.9 14 Sudeste 17 Sudeste 0 1018.9 -1 87
2020-03-18 04:00:00 7.4 12 Sudeste 16 Sudeste 0 1019.2 -0.9 86
2020-03-18 03:00:00 7.8 14 Sur 18 Sur 0 1019.4 -1 86
2020-03-18 02:00:00 8.1 11 Sur 15 Sur 0 1019.9 -0.5 85
2020-03-18 01:00:00 8.5 10 Sur 18 Sur 0 1020.1 -0.2 84
2020-03-18 00:00:00 9.6 9 Sudeste -- -- 0 1020.4 0.1 81
2020-03-17 23:00:00 11.2 10 Este 30 Este 0 1020.4 0.3 82
2020-03-17 22:00:00 11.7 17 Este 36 Nordeste 0 1020.3 0.7 81
2020-03-17 21:00:00 11.8 18 Este 40 Nordeste 0 1020.3 0.5 80
2020-03-17 20:00:00 12 18 Nordeste 37 Nordeste 0 1020.1 0.2 79
2020-03-17 19:00:00 12.1 20 Nordeste 46 Nordeste 0 1019.6 -0.5 78
2020-03-17 18:00:00 12.1 25 Nordeste 46 Nordeste 0 1019.8 -0.7 78
2020-03-17 17:00:00 11.9 26 Nordeste 46 Nordeste 0 1019.9 -0.7 81
2020-03-17 16:00:00 12 23 Nordeste 43 Nordeste 0 1020.1 -1 79
2020-03-17 15:00:00 11.8 19 Nordeste 46 Nordeste 0 1020.5 -0.8 79
2020-03-17 14:00:00 12.3 14 Norte 45 Nordeste 0 1020.6 -0.6 78
2020-03-17 13:00:00 12.2 14 Norte 42 Nordeste 0 1021.1 -0.2 74
2020-03-17 12:00:00 12.5 17 Nordeste 39 Nordeste 0 1021.3 0.2 70
2020-03-17 11:00:00 11.9 21 Este 37 Este 0 1021.2 0.5 70
2020-03-17 10:00:00 11.3 15 Nordeste 33 Nordeste 0 1021.3 0.9 71
2020-03-17 09:00:00 10.7 15 Nordeste 35 Este 0 1021.1 1.1 72
2020-03-17 08:00:00 10.4 16 Este 32 Este 0 1020.7 1 73
2020-03-17 07:00:00 10 11 Este 28 Sudeste 0 1020.4 0.4 71
2020-03-17 06:00:00 9.6 10 Este 23 Este 0 1020 -0.4 72
2020-03-17 05:00:00 9.2 11 Este 20 Este 0 1019.7 -0.6 72
2020-03-17 04:00:00 8.2 10 Sudeste 17 Este 0 1020 -0.4 72
2020-03-17 03:00:00 9.7 10 Este 20 Este 0 1020.4 0.1 70
2020-03-17 02:00:00 10 10 Este 23 Este 0 1020.3 0.2 69
2020-03-17 01:00:00 10.4 11 Este 42 Nordeste 0 1020.4 0.7 67
2020-03-17 00:00:00 10.8 18 Nordeste 44 Nordeste 0 1020.3 0.8 67
2020-03-16 23:00:00 10.7 20 Nordeste 42 Nordeste 0 1020.1 1.4 65
2020-03-16 22:00:00 10.6 12 Norte 41 Nordeste 0 1019.7 1.9 66
2020-03-16 21:00:00 10.7 13 Norte 39 Nordeste 0 1019.5 2 67
2020-03-16 20:00:00 10.7 10 Norte 41 Nordeste 0 1018.7 2.1 66
2020-03-16 19:00:00 11.5 13 Norte 40 Nordeste 0 1017.8 1.1 64
2020-03-16 18:00:00 11.8 11 Noroeste 37 Norte 0 1017.5 1.2 64
2020-03-16 17:00:00 11.8 13 Sudoeste 35 Norte 0 1016.6 0 70
2020-03-16 16:00:00 11.6 9 Oeste 33 Oeste 0 1016.7 0.5 67
2020-03-16 15:00:00 10.8 12 Oeste 37 Sudoeste 0.2 1016.3 0.6 72
2020-03-16 14:00:00 11.2 13 Noroeste 46 Norte 0 1016.6 1.2 73
2020-03-16 13:00:00 10.2 17 Norte 45 Nordeste 0.8 1016.2 1.6 71
2020-03-16 12:00:00 11.1 10 Sudoeste 36 Sudoeste 0 1015.7 2.2 70
2020-03-16 11:00:00 10.4 11 Oeste 45 Norte 0.4 1015.4 2.6 71
2020-03-16 10:00:00 10.7 12 Sudoeste 41 Este 0 1014.6 2.3 69
2020-03-16 09:00:00 9.8 17 Sudoeste 57 Nordeste 0.2 1013.5 2 72
2020-03-16 08:00:00 9.8 29 Noroeste 52 Norte 0 1012.8 1.4 73
2020-03-16 07:00:00 9.6 14 Noroeste 41 Noroeste 0 1012.3 1.1 74
2020-03-16 06:00:00 8.9 17 Noroeste 42 Norte 0 1011.5 0.7 78
2020-03-16 05:00:00 5.4 15 Sudeste 25 Sur 0.2 1011.4 1.2 87
2020-03-16 04:00:00 5.6 14 Sur 24 Sur 0.8 1011.2 1 87
2020-03-16 03:00:00 5.7 14 Sur 23 Sur 0.2 1010.8 0.8 86
2020-03-16 02:00:00 5.2 19 Sur 26 Sur 0 1010.2 0.2 86
2020-03-16 01:00:00 5.7 16 Sur 23 Sur 0.2 1010.2 1 85
2020-03-16 00:00:00 6.1 12 Sur 24 Sur 2.2 1010 1.4 85
2020-03-15 23:00:00 5.7 16 Sudeste 24 Sur 1.2 1010 1.2 83
2020-03-15 22:00:00 5.7 18 Sur 28 Sur 0.2 1009.2 0.8 83
2020-03-15 21:00:00 5.6 18 Sur 34 Sur 0 1008.6 0.5 82
2020-03-15 20:00:00 6.1 19 Sur 33 Sudoeste 0.8 1008.8 1.2 81
2020-03-15 19:00:00 6.6 24 Oeste -- -- 1 1008.4 1.7 82
2020-03-15 18:00:00 6.6 -- -- -- -- 1.6 1008.1 1.5 85
2020-03-15 17:00:00 6.9 -- -- -- -- 1.4 1007.6 1.3 87
2020-03-15 16:00:00 7.6 -- -- -- -- 1 1006.7 2 89
2020-03-15 15:00:00 8.3 -- -- -- -- 0.4 1006.6 1.9 89
2020-03-15 14:00:00 8.6 -- -- -- -- 0.2 1006.3 1.1 89
2020-03-15 13:00:00 11.4 -- -- -- -- 0 1004.7 -1.2 78
2020-03-15 12:00:00 15.3 30 Oeste 59 Oeste 0 1004.7 -1.9 48
2020-03-15 11:00:00 13.2 32 Sudoeste 60 Sudoeste 0 1005.2 -1.3 61
2020-03-15 10:00:00 11.5 28 Oeste 52 Oeste 0 1005.9 -0.7 75
2020-03-15 09:00:00 9.2 13 Sudoeste 20 Sudoeste 0 1006.6 0.2 83
2020-03-15 08:00:00 10.2 16 Oeste 27 Oeste 0 1006.5 0 80
2020-03-15 07:00:00 9.8 19 Sudoeste 28 Sudoeste 0 1006.6 0 79
2020-03-15 06:00:00 9.1 16 Oeste 24 Sudoeste 0 1006.4 -1 80
2020-03-15 05:00:00 8.8 15 Sudoeste 20 Sudoeste 0 1006.5 -2 84
2020-03-15 04:00:00 6.5 15 Sur 18 Sur 0 1006.6 -2.9 84
2020-03-15 03:00:00 6.8 16 Sudeste 22 Sur 0 1007.4 -3.2 84
2020-03-15 02:00:00 7.4 10 Sudoeste 18 Sur 0 1008.5 -2.8 82
2020-03-15 01:00:00 7.4 14 Sur 21 Sur 0 1009.5 -2.1 82
2020-03-15 00:00:00 8.1 12 Sur 16 Sur 0 1010.6 -1.6 80
2020-03-14 23:00:00 8.1 10 Sur 15 Sur 0 1011.3 -1.1 79
2020-03-14 22:00:00 8.8 12 Sur 15 Sur 0 1011.6 -0.9 76
2020-03-14 21:00:00 11.6 8 Este 27 Nordeste 0 1012.2 -0.5 71
2020-03-14 20:00:00 12.2 13 Nordeste 29 Nordeste 0 1012.4 -0.9 69
2020-03-14 19:00:00 13 11 Nordeste 27 Nordeste 0 1012.5 -1.3 67
2020-03-14 18:00:00 14 8 Nordeste 20 Este 0 1012.7 -1.6 64
2020-03-14 17:00:00 14.8 6 Este 19 Norte 0 1013.3 -1.7 62
2020-03-14 16:00:00 15.3 5 Nordeste 14 Oeste 0 1013.8 -1.9 59
2020-03-14 15:00:00 15.2 4 Oeste 14 Oeste 0 1014.3 -2 61
2020-03-14 14:00:00 14.8 4 Oeste 13 Oeste 0 1015 -1.8 61
2020-03-14 13:00:00 14.3 8 Noroeste 17 Noroeste 0 1015.7 -1.2 63
2020-03-14 12:00:00 14.4 4 Noroeste 12 Sur 0 1016.3 -0.3 64
2020-03-14 11:00:00 13.3 8 Sur 18 Sur 0 1016.8 0.7 66
2020-03-14 10:00:00 11 11 Sur 22 Sur 0 1016.9 1 73
2020-03-14 09:00:00 8.8 16 Sur 23 Sudeste 0 1016.6 0.7 79
2020-03-14 08:00:00 7.3 18 Sur 23 Sur 0 1016.1 0.3 83
2020-03-14 07:00:00 7.7 14 Sur 17 Sur 0 1015.9 -0.2 83
2020-03-14 06:00:00 8.3 12 Sur 16 Sur 0 1015.9 -0.7 84
2020-03-14 05:00:00 9.2 9 Sur 14 Sur 0 1015.8 -1.1 84
2020-03-14 04:00:00 9.2 12 Sur 15 Sur 0 1016.1 -1 85
2020-03-14 03:00:00 9.2 12 Sur 15 Sur 0 1016.6 -0.6 85
2020-03-14 02:00:00 9.2 10 Sur 13 Sur 0 1016.9 -0.3 85
2020-03-14 01:00:00 9.5 9 Sur 12 Sur 0 1017.1 0.3 84
2020-03-14 00:00:00 9.8 7 Sur 9 Sur 0 1017.2 0.8 83
2020-03-13 23:00:00 10.2 3 Sudoeste 8 Oeste 0 1017.2 1.6 81
2020-03-13 22:00:00 11 2 Sudoeste 18 Nordeste 0 1016.8 1.4 79
2020-03-13 21:00:00 11.6 8 Nordeste 26 Nordeste 0 1016.4 1.5 79
2020-03-13 20:00:00 11.7 9 Nordeste 27 Nordeste 0 1015.6 0.6 78
2020-03-13 19:00:00 12 8 Noroeste 28 Norte 0 1015.4 -0.8 76
2020-03-13 18:00:00 12.2 10 Nordeste 29 Nordeste 0 1014.9 -1.7 76
2020-03-13 17:00:00 12.1 15 Nordeste 33 Norte 0 1015 -2.1 75
2020-03-13 16:00:00 12.1 12 Nordeste 35 Nordeste 0 1016.2 -1.5 74
2020-03-13 15:00:00 12.2 12 Nordeste 31 Norte 0 1016.6 -1.1 74
2020-03-13 14:00:00 11.6 17 Este 40 Este 0 1017.1 -0.6 76
2020-03-13 13:00:00 11.8 14 Nordeste 32 Nordeste 0 1017.7 0.2 76
2020-03-13 12:00:00 10.8 20 Este 46 Este 0 1017.7 0.5 77
2020-03-13 11:00:00 11.2 14 Nordeste 38 Este 0 1017.7 0.8 79
2020-03-13 10:00:00 10.8 19 Este 36 Este 0 1017.5 0.5 79
2020-03-13 09:00:00 10.3 18 Este 36 Este 0 1017.2 0.1 80
2020-03-13 08:00:00 10.1 23 Este 42 Este 0 1016.9 -0.4 81
2020-03-13 07:00:00 10.1 16 Este 32 Este 0 1017 -0.9 81
2020-03-13 06:00:00 9.8 19 Este 35 Este 0 1017.1 -1.2 83
2020-03-13 05:00:00 9.4 19 Este 32 Este 0 1017.3 -1.2 86
2020-03-13 04:00:00 9.6 12 Este 26 Este 0 1017.9 -0.8 86
2020-03-13 03:00:00 9.7 16 Este 28 Este 0 1018.3 -0.6 86
2020-03-13 02:00:00 10.1 12 Nordeste 28 Este 0 1018.5 0 82
2020-03-13 01:00:00 10.2 15 Este 27 Este 0 1018.7 0.1 81
2020-03-13 00:00:00 10.2 11 Sudeste 34 Nordeste 0 1018.9 0.4 78
2020-03-12 23:00:00 10.5 8 Oeste 25 Noroeste 0 1018.5 0.2 80
2020-03-12 22:00:00 10.4 7 Este 20 Este 0 1018.6 0.6 83
2020-03-12 21:00:00 10 10 Sudeste 28 Nordeste 0 1018.5 1.1 85
2020-03-12 20:00:00 10.1 13 Nordeste 31 Nordeste 0 1018.3 1.5 86
2020-03-12 19:00:00 10.4 7 Oeste 26 Oeste 0 1018 1.4 84
2020-03-12 18:00:00 10.7 10 Noroeste 31 Noroeste 0 1017.4 0.8 80
2020-03-12 17:00:00 11.5 9 Sudoeste 30 Noroeste 0 1016.8 -0.2 81
2020-03-12 16:00:00 11.8 8 Sudoeste 28 Nordeste 0 1016.6 -0.6 83
2020-03-12 15:00:00 11.9 22 Norte 37 Norte 0 1016.6 -0.5 82
2020-03-12 14:00:00 13 13 Noroeste 20 Noroeste 0 1017 0 80
2020-03-12 13:00:00 13.3 12 Noroeste 17 Noroeste 0 1017.2 0.6 79
2020-03-12 12:00:00 14 8 Oeste 13 Noroeste 0 1017.1 1 78
2020-03-12 11:00:00 13.1 8 Noroeste 16 Noroeste 0 1017 1.5 81
2020-03-12 10:00:00 12.5 12 Noroeste 15 Noroeste 0 1016.6 1.5 83
2020-03-12 09:00:00 12.7 5 Sudoeste 10 Oeste 0 1016.1 1.2 81
2020-03-12 08:00:00 13 2 Oeste 14 Sudoeste 0 1015.5 0.7 79
2020-03-12 07:00:00 13.1 4 Oeste 12 Sur 0 1015.1 0 80
2020-03-12 06:00:00 13.3 9 Oeste 19 Oeste 0 1014.9 -0.5 82
2020-03-12 05:00:00 13.4 10 Oeste 16 Oeste 0 1014.8 -0.5 81
2020-03-12 04:00:00 13.6 10 Oeste 13 Oeste 0 1015.1 -0.2 80
2020-03-11 11:00:00 -- -- -- -- -- -- -- -- --
2020-03-11 10:00:00 13 12 Sudeste 22 Sudeste 0 1016.3 -0.4 77
2020-03-11 09:00:00 10.4 17 Sudeste 24 Sudeste 0 1016.5 -0.3 83
2020-03-11 08:00:00 9.2 18 Sudeste 23 Sudeste 0 1016.5 -0.4 84
2020-03-11 07:00:00 9.3 18 Sudeste 23 Sudeste 0 1016.7 -0.4 84
2020-03-11 06:00:00 9.4 17 Sudeste 21 Sudeste 0 1016.8 -0.7 84
2020-03-11 05:00:00 9.8 17 Sudeste 22 Sudeste 0 1016.9 -1 83
2020-03-11 04:00:00 10.1 17 Sudeste 22 Sudeste 0 1017.1 -0.6 83
2020-03-11 03:00:00 10.2 13 Sur 19 Sur 0 1017.5 -0.2 82
2020-03-11 02:00:00 11.9 12 Sudoeste 17 Sudoeste 0 1017.9 -0.4 82
2020-03-11 01:00:00 10.7 14 Sudeste 24 Sudeste 0 1017.7 -0.7 80
2020-03-11 00:00:00 11.5 17 Sudeste 24 Sudeste 0 1017.7 -0.7 79
2020-03-10 23:00:00 11.7 15 Sudeste 23 Sudeste 0 1018.3 0.4 79
2020-03-10 22:00:00 12.2 14 Sudeste 17 Sudeste 0 1018.4 0.8 77
2020-03-10 21:00:00 13.4 8 Sudeste 10 Sudeste 0 1018.4 0.9 72
2020-03-10 20:00:00 13.6 8 Sudeste 10 Sudeste 0 1017.9 0.5 72
2020-03-10 19:00:00 14.8 4 Sudeste 7 Sudeste 0 1017.6 0.3 67
2020-03-10 18:00:00 15.2 3 Sudeste 10 Este 0 1017.5 0.2 63
2020-03-10 17:00:00 15 7 Este 13 Este 0 1017.4 -0.6 70
2020-03-10 16:00:00 14.8 8 Este 15 Este 0 1017.3 -1.4 70
2020-03-10 15:00:00 14.4 10 Este 19 Este 0 1017.3 -1.8 72
2020-03-10 14:00:00 14.2 11 Este 19 Nordeste 0 1018 -0.9 73
2020-03-10 13:00:00 14.1 12 Nordeste 20 Nordeste 0 1018.7 0.2 72
2020-03-10 12:00:00 14 7 Este 17 Este 0 1019.1 1 74
2020-03-10 11:00:00 14.1 5 Este 9 Nordeste 0 1018.9 1.2 76
2020-03-10 10:00:00 12.3 4 Este 15 Sudeste 0 1018.5 1.3 81
2020-03-10 09:00:00 8.6 11 Sudeste 13 Sudeste 0 1018.1 1.1 83
2020-03-10 08:00:00 7.4 4 Sudoeste 13 Sudeste 0 1017.7 0 81
2020-03-10 07:00:00 7.8 14 Sudeste 19 Sudeste 0 1017.2 -1 80
2020-03-10 06:00:00 7.8 16 Sudeste 22 Sudeste 0 1017 -1.6 84
2020-03-10 05:00:00 7.7 16 Sur 20 Sur 0 1017.7 -1.2 85
2020-03-10 04:00:00 7.7 12 Sur 17 Sur 0 1018.2 -1.2 85
2020-03-10 03:00:00 8.3 12 Sudeste 18 Sur 0 1018.6 -1.1 84
2020-03-10 02:00:00 8.5 13 Sudeste 19 Sur 0 1018.9 -1.2 84
2020-03-10 01:00:00 9 15 Sur 18 Sur 0 1019.4 -1.1 82
2020-03-10 00:00:00 9.1 14 Sur 16 Sudeste 0 1019.7 -1 82
2020-03-09 23:00:00 9.7 13 Sur 16 Sur 0 1020.1 -0.6 80
2020-03-09 22:00:00 10.4 12 Sur 16 Sur 0 1020.5 -0.2 78
2020-03-09 21:00:00 11.3 6 Sur 10 Sudoeste 0 1020.7 0.3 75
2020-03-09 20:00:00 12.2 6 Sudoeste 12 Oeste 0 1020.7 -0.1 72
2020-03-09 19:00:00 13.3 8 Oeste -- -- 0 1020.7 0 71
2020-03-09 18:00:00 14.7 8 Oeste 17 Oeste 0 1020.4 -0.3 67
2020-03-09 17:00:00 14.9 11 Oeste 21 Oeste 0 1020.8 -0.8 67
2020-03-09 16:00:00 15.4 12 Oeste 36 Noroeste 0 1020.7 -1.7 69
2020-03-09 15:00:00 14.2 23 Oeste 38 Oeste 0 1020.7 -2.2 65
2020-03-09 14:00:00 15.7 26 Oeste 39 Oeste 0 1021.6 -1.3 59
2020-03-09 13:00:00 14.8 21 Oeste 34 Oeste 0 1022.4 0.3 60
2020-03-09 12:00:00 14.3 16 Oeste 36 Oeste 0 1022.9 1.4 59
2020-03-09 11:00:00 12.9 21 Oeste 33 Oeste 0 1022.9 2.5 58
2020-03-09 10:00:00 12 24 Oeste 32 Oeste 0 1022.1 1.1 61
2020-03-09 09:00:00 11.3 17 Oeste 30 Oeste 0 1021.5 0.8 66
2020-03-09 08:00:00 10.8 21 Oeste 31 Oeste 0 1020.4 0.4 66
2020-03-09 07:00:00 11.1 17 Oeste 33 Oeste 0 1021 1 63
2020-03-09 06:00:00 10.9 24 Oeste 33 Sudoeste 0 1020.7 0.1 65
2020-03-09 05:00:00 11.1 28 Oeste 45 Oeste 0 1020 0 66
2020-03-09 04:00:00 11.5 35 Oeste 48 Oeste 0 1020 0 65
2020-03-09 03:00:00 11.6 29 Oeste 45 Oeste 0 1020.6 0.3 68
2020-03-09 02:00:00 11.8 31 Oeste 44 Oeste 0 1020 0.1 69
2020-03-09 01:00:00 11.9 32 Oeste 51 Oeste 0 1020 1.3 68
2020-03-09 00:00:00 12.3 23 Oeste 46 Oeste 0 1020.3 2.5 67